sensor_id;sensor_type;location;lat;lon;timestamp;P1;durP1;ratioP1;P2;durP2;ratioP2
78889;SDS011;68279;48.964;14.502;2023-04-28T00:01:18;8.75;;;2.80;;
78889;SDS011;68279;48.964;14.502;2023-04-28T00:03:43;8.05;;;2.13;;
78889;SDS011;68279;48.964;14.502;2023-04-28T00:06:09;5.13;;;3.03;;
78889;SDS011;68279;48.964;14.502;2023-04-28T00:08:35;8.43;;;3.58;;
78889;SDS011;68279;48.964;14.502;2023-04-28T00:11:01;4.50;;;2.60;;
78889;SDS011;68279;48.964;14.502;2023-04-28T00:13:28;6.50;;;2.95;;
78889;SDS011;68279;48.964;14.502;2023-04-28T00:15:53;6.50;;;3.15;;
78889;SDS011;68279;48.964;14.502;2023-04-28T00:18:19;3.65;;;2.97;;
78889;SDS011;68279;48.964;14.502;2023-04-28T00:20:45;5.32;;;2.95;;
78889;SDS011;68279;48.964;14.502;2023-04-28T00:23:11;5.82;;;2.53;;
78889;SDS011;68279;48.964;14.502;2023-04-28T00:25:36;7.05;;;3.28;;
78889;SDS011;68279;48.964;14.502;2023-04-28T00:28:03;6.25;;;3.42;;
78889;SDS011;68279;48.964;14.502;2023-04-28T00:30:29;3.85;;;2.28;;
78889;SDS011;68279;48.964;14.502;2023-04-28T00:32:55;6.25;;;2.97;;
78889;SDS011;68279;48.964;14.502;2023-04-28T00:35:21;4.53;;;2.58;;
78889;SDS011;68279;48.964;14.502;2023-04-28T00:37:47;4.47;;;2.95;;
78889;SDS011;68279;48.964;14.502;2023-04-28T00:40:12;4.22;;;2.53;;
78889;SDS011;68279;48.964;14.502;2023-04-28T00:42:38;5.20;;;2.60;;
78889;SDS011;68279;48.964;14.502;2023-04-28T00:45:04;8.93;;;3.38;;
78889;SDS011;68279;48.964;14.502;2023-04-28T00:47:33;7.07;;;3.75;;
78889;SDS011;68279;48.964;14.502;2023-04-28T00:50:05;5.63;;;2.33;;
78889;SDS011;68279;48.964;14.502;2023-04-28T00:54:57;4.78;;;2.17;;
78889;SDS011;68279;48.964;14.502;2023-04-28T00:57:23;4.88;;;2.03;;
78889;SDS011;68279;48.964;14.502;2023-04-28T00:59:48;5.50;;;2.97;;
78889;SDS011;68279;48.964;14.502;2023-04-28T01:02:14;6.45;;;3.20;;
78889;SDS011;68279;48.964;14.502;2023-04-28T01:04:46;5.35;;;2.97;;
78889;SDS011;68279;48.964;14.502;2023-04-28T01:07:12;7.22;;;2.92;;
78889;SDS011;68279;48.964;14.502;2023-04-28T01:09:37;6.18;;;3.50;;
78889;SDS011;68279;48.964;14.502;2023-04-28T01:12:03;6.85;;;3.40;;
78889;SDS011;68279;48.964;14.502;2023-04-28T01:14:29;5.47;;;2.90;;
78889;SDS011;68279;48.964;14.502;2023-04-28T01:16:55;6.80;;;2.78;;
78889;SDS011;68279;48.964;14.502;2023-04-28T01:19:21;5.18;;;2.67;;
78889;SDS011;68279;48.964;14.502;2023-04-28T01:21:51;3.17;;;1.48;;
78889;SDS011;68279;48.964;14.502;2023-04-28T01:24:17;4.03;;;3.00;;
78889;SDS011;68279;48.964;14.502;2023-04-28T01:26:43;4.30;;;2.15;;
78889;SDS011;68279;48.964;14.502;2023-04-28T01:29:09;3.42;;;2.10;;
78889;SDS011;68279;48.964;14.502;2023-04-28T01:31:35;3.58;;;2.25;;
78889;SDS011;68279;48.964;14.502;2023-04-28T01:34:00;4.53;;;2.78;;
78889;SDS011;68279;48.964;14.502;2023-04-28T01:36:26;10.93;;;2.83;;
78889;SDS011;68279;48.964;14.502;2023-04-28T01:38:52;6.13;;;2.67;;
78889;SDS011;68279;48.964;14.502;2023-04-28T01:41:19;4.30;;;2.55;;
78889;SDS011;68279;48.964;14.502;2023-04-28T01:43:44;5.70;;;2.55;;
78889;SDS011;68279;48.964;14.502;2023-04-28T01:46:10;7.60;;;2.25;;
78889;SDS011;68279;48.964;14.502;2023-04-28T01:48:36;3.05;;;1.90;;
78889;SDS011;68279;48.964;14.502;2023-04-28T01:51:01;6.32;;;2.08;;
78889;SDS011;68279;48.964;14.502;2023-04-28T01:53:27;3.22;;;1.75;;
78889;SDS011;68279;48.964;14.502;2023-04-28T01:55:52;3.92;;;2.05;;
78889;SDS011;68279;48.964;14.502;2023-04-28T01:58:18;3.40;;;1.92;;
78889;SDS011;68279;48.964;14.502;2023-04-28T02:00:44;4.38;;;2.30;;
78889;SDS011;68279;48.964;14.502;2023-04-28T02:03:10;7.57;;;3.50;;
78889;SDS011;68279;48.964;14.502;2023-04-28T02:05:36;3.13;;;1.38;;
78889;SDS011;68279;48.964;14.502;2023-04-28T02:08:01;10.63;;;2.45;;
78889;SDS011;68279;48.964;14.502;2023-04-28T06:24:35;9.32;;;3.13;;
78889;SDS011;68279;48.964;14.502;2023-04-28T06:27:00;8.32;;;3.83;;
78889;SDS011;68279;48.964;14.502;2023-04-28T06:29:27;6.68;;;3.85;;
78889;SDS011;68279;48.964;14.502;2023-04-28T06:31:52;7.63;;;3.13;;
78889;SDS011;68279;48.964;14.502;2023-04-28T06:34:23;6.30;;;3.72;;
78889;SDS011;68279;48.964;14.502;2023-04-28T06:36:57;4.53;;;2.80;;
78889;SDS011;68279;48.964;14.502;2023-04-28T06:39:23;5.45;;;3.42;;
78889;SDS011;68279;48.964;14.502;2023-04-28T06:41:48;5.22;;;3.17;;
78889;SDS011;68279;48.964;14.502;2023-04-28T06:44:14;6.18;;;3.63;;
78889;SDS011;68279;48.964;14.502;2023-04-28T06:46:40;6.53;;;3.78;;
78889;SDS011;68279;48.964;14.502;2023-04-28T06:49:06;4.93;;;2.85;;
78889;SDS011;68279;48.964;14.502;2023-04-28T06:51:32;6.97;;;3.65;;
78889;SDS011;68279;48.964;14.502;2023-04-28T06:53:57;4.85;;;3.35;;
78889;SDS011;68279;48.964;14.502;2023-04-28T06:56:24;6.07;;;3.53;;
78889;SDS011;68279;48.964;14.502;2023-04-28T06:58:51;6.72;;;3.53;;
78889;SDS011;68279;48.964;14.502;2023-04-28T07:01:18;5.63;;;3.38;;
78889;SDS011;68279;48.964;14.502;2023-04-28T07:03:44;5.90;;;3.70;;
78889;SDS011;68279;48.964;14.502;2023-04-28T07:06:10;9.13;;;3.72;;
78889;SDS011;68279;48.964;14.502;2023-04-28T07:08:35;5.88;;;3.83;;
78889;SDS011;68279;48.964;14.502;2023-04-28T07:11:01;5.55;;;2.95;;
78889;SDS011;68279;48.964;14.502;2023-04-28T07:13:30;5.53;;;3.42;;
78889;SDS011;68279;48.964;14.502;2023-04-28T07:15:59;6.78;;;3.03;;
78889;SDS011;68279;48.964;14.502;2023-04-28T07:18:25;8.35;;;3.20;;
78889;SDS011;68279;48.964;14.502;2023-04-28T07:20:50;5.72;;;3.53;;
78889;SDS011;68279;48.964;14.502;2023-04-28T07:23:16;6.05;;;3.83;;
78889;SDS011;68279;48.964;14.502;2023-04-28T07:25:42;4.88;;;3.03;;
78889;SDS011;68279;48.964;14.502;2023-04-28T07:28:07;4.53;;;2.92;;
78889;SDS011;68279;48.964;14.502;2023-04-28T07:30:36;4.97;;;3.20;;
78889;SDS011;68279;48.964;14.502;2023-04-28T07:33:01;4.82;;;3.35;;
78889;SDS011;68279;48.964;14.502;2023-04-28T07:35:27;5.75;;;2.90;;
78889;SDS011;68279;48.964;14.502;2023-04-28T07:37:53;5.47;;;3.03;;
78889;SDS011;68279;48.964;14.502;2023-04-28T07:40:19;5.43;;;3.05;;
78889;SDS011;68279;48.964;14.502;2023-04-28T07:42:44;5.68;;;3.30;;
78889;SDS011;68279;48.964;14.502;2023-04-28T07:45:10;6.18;;;3.70;;
78889;SDS011;68279;48.964;14.502;2023-04-28T07:47:36;4.43;;;3.08;;
78889;SDS011;68279;48.964;14.502;2023-04-28T07:50:02;5.00;;;3.08;;
78889;SDS011;68279;48.964;14.502;2023-04-28T07:52:30;6.72;;;2.85;;
78889;SDS011;68279;48.964;14.502;2023-04-28T07:54:59;4.20;;;2.67;;
78889;SDS011;68279;48.964;14.502;2023-04-28T07:57:27;7.15;;;3.45;;
78889;SDS011;68279;48.964;14.502;2023-04-28T07:59:53;7.47;;;3.38;;
78889;SDS011;68279;48.964;14.502;2023-04-28T08:02:19;7.72;;;3.42;;
78889;SDS011;68279;48.964;14.502;2023-04-28T08:04:45;7.20;;;2.78;;
78889;SDS011;68279;48.964;14.502;2023-04-28T08:07:11;5.65;;;2.83;;
78889;SDS011;68279;48.964;14.502;2023-04-28T08:09:37;5.07;;;3.03;;
78889;SDS011;68279;48.964;14.502;2023-04-28T08:12:04;5.80;;;2.95;;
78889;SDS011;68279;48.964;14.502;2023-04-28T08:14:30;4.63;;;2.63;;
78889;SDS011;68279;48.964;14.502;2023-04-28T08:16:56;4.78;;;2.92;;
78889;SDS011;68279;48.964;14.502;2023-04-28T08:19:21;5.07;;;2.55;;
78889;SDS011;68279;48.964;14.502;2023-04-28T08:21:47;5.40;;;2.35;;
78889;SDS011;68279;48.964;14.502;2023-04-28T08:24:13;4.53;;;2.45;;
78889;SDS011;68279;48.964;14.502;2023-04-28T08:26:38;4.47;;;2.65;;
78889;SDS011;68279;48.964;14.502;2023-04-28T08:29:04;6.80;;;2.63;;
78889;SDS011;68279;48.964;14.502;2023-04-28T08:31:30;3.47;;;2.25;;
78889;SDS011;68279;48.964;14.502;2023-04-28T08:33:55;4.25;;;2.42;;
78889;SDS011;68279;48.964;14.502;2023-04-28T08:36:21;4.43;;;2.15;;
78889;SDS011;68279;48.964;14.502;2023-04-28T08:38:49;6.28;;;2.35;;
78889;SDS011;68279;48.964;14.502;2023-04-28T08:41:14;4.05;;;1.85;;
78889;SDS011;68279;48.964;14.502;2023-04-28T08:43:41;5.25;;;2.55;;
78889;SDS011;68279;48.964;14.502;2023-04-28T08:46:07;4.95;;;2.22;;
78889;SDS011;68279;48.964;14.502;2023-04-28T08:48:43;3.90;;;2.40;;
78889;SDS011;68279;48.964;14.502;2023-04-28T08:51:12;3.80;;;2.40;;
78889;SDS011;68279;48.964;14.502;2023-04-28T08:53:40;4.18;;;2.55;;
78889;SDS011;68279;48.964;14.502;2023-04-28T08:56:09;5.57;;;2.95;;
78889;SDS011;68279;48.964;14.502;2023-04-28T08:58:38;4.68;;;2.60;;
78889;SDS011;68279;48.964;14.502;2023-04-28T09:01:04;3.70;;;2.75;;
78889;SDS011;68279;48.964;14.502;2023-04-28T09:03:30;3.40;;;2.47;;
78889;SDS011;68279;48.964;14.502;2023-04-28T09:05:57;5.32;;;2.65;;
78889;SDS011;68279;48.964;14.502;2023-04-28T09:08:22;4.85;;;2.45;;
78889;SDS011;68279;48.964;14.502;2023-04-28T09:11:10;4.50;;;2.28;;
78889;SDS011;68279;48.964;14.502;2023-04-28T09:13:39;4.70;;;2.25;;
78889;SDS011;68279;48.964;14.502;2023-04-28T09:16:05;4.43;;;2.55;;
78889;SDS011;68279;48.964;14.502;2023-04-28T09:18:31;5.05;;;2.38;;
78889;SDS011;68279;48.964;14.502;2023-04-28T09:21:09;3.67;;;2.17;;
78889;SDS011;68279;48.964;14.502;2023-04-28T09:23:45;5.20;;;2.58;;
78889;SDS011;68279;48.964;14.502;2023-04-28T09:26:14;4.50;;;2.47;;
78889;SDS011;68279;48.964;14.502;2023-04-28T09:28:40;3.30;;;2.40;;
78889;SDS011;68279;48.964;14.502;2023-04-28T09:31:14;3.25;;;1.92;;
78889;SDS011;68279;48.964;14.502;2023-04-28T09:33:56;3.97;;;2.08;;
78889;SDS011;68279;48.964;14.502;2023-04-28T09:36:28;5.50;;;2.28;;
78889;SDS011;68279;48.964;14.502;2023-04-28T09:38:57;3.72;;;2.50;;
78889;SDS011;68279;48.964;14.502;2023-04-28T09:41:37;3.08;;;2.10;;
78889;SDS011;68279;48.964;14.502;2023-04-28T09:44:14;3.40;;;2.17;;
78889;SDS011;68279;48.964;14.502;2023-04-28T09:46:42;4.75;;;1.85;;
78889;SDS011;68279;48.964;14.502;2023-04-28T09:49:09;5.57;;;2.47;;
78889;SDS011;68279;48.964;14.502;2023-04-28T09:51:35;4.18;;;2.03;;
78889;SDS011;68279;48.964;14.502;2023-04-28T09:54:00;3.13;;;2.13;;
78889;SDS011;68279;48.964;14.502;2023-04-28T09:56:27;3.65;;;2.13;;
78889;SDS011;68279;48.964;14.502;2023-04-28T09:58:55;4.15;;;2.40;;
78889;SDS011;68279;48.964;14.502;2023-04-28T10:01:23;3.78;;;2.25;;
78889;SDS011;68279;48.964;14.502;2023-04-28T10:03:51;2.95;;;2.20;;
78889;SDS011;68279;48.964;14.502;2023-04-28T10:06:17;4.03;;;2.53;;
78889;SDS011;68279;48.964;14.502;2023-04-28T10:08:43;3.80;;;2.00;;
78889;SDS011;68279;48.964;14.502;2023-04-28T10:11:13;4.82;;;2.40;;
78889;SDS011;68279;48.964;14.502;2023-04-28T10:13:41;6.45;;;1.92;;
78889;SDS011;68279;48.964;14.502;2023-04-28T10:16:09;3.85;;;2.35;;
78889;SDS011;68279;48.964;14.502;2023-04-28T10:18:35;3.10;;;2.03;;
78889;SDS011;68279;48.964;14.502;2023-04-28T10:21:02;2.72;;;1.40;;
78889;SDS011;68279;48.964;14.502;2023-04-28T10:26:19;3.03;;;1.95;;
78889;SDS011;68279;48.964;14.502;2023-04-28T10:28:48;3.72;;;1.65;;
78889;SDS011;68279;48.964;14.502;2023-04-28T10:31:17;2.58;;;1.77;;
78889;SDS011;68279;48.964;14.502;2023-04-28T10:33:47;3.40;;;1.50;;
78889;SDS011;68279;48.964;14.502;2023-04-28T10:39:17;3.90;;;1.92;;
78889;SDS011;68279;48.964;14.502;2023-04-28T10:41:44;3.05;;;1.70;;
78889;SDS011;68279;48.964;14.502;2023-04-28T10:55:27;5.93;;;2.10;;
78889;SDS011;68279;48.964;14.502;2023-04-28T11:00:40;5.43;;;2.53;;
78889;SDS011;68279;48.964;14.502;2023-04-28T11:03:07;3.17;;;1.95;;
78889;SDS011;68279;48.964;14.502;2023-04-28T11:05:33;3.70;;;2.47;;
78889;SDS011;68279;48.964;14.502;2023-04-28T11:13:40;5.05;;;2.45;;
78889;SDS011;68279;48.964;14.502;2023-04-28T11:16:07;3.47;;;2.15;;
78889;SDS011;68279;48.964;14.502;2023-04-28T11:21:17;4.35;;;2.13;;
78889;SDS011;68279;48.964;14.502;2023-04-28T11:23:43;5.80;;;2.50;;
78889;SDS011;68279;48.964;14.502;2023-04-28T11:26:09;5.50;;;2.38;;
78889;SDS011;68279;48.964;14.502;2023-04-28T11:28:35;3.15;;;2.15;;
78889;SDS011;68279;48.964;14.502;2023-04-28T11:31:11;4.72;;;2.30;;
78889;SDS011;68279;48.964;14.502;2023-04-28T11:33:37;2.97;;;2.20;;
78889;SDS011;68279;48.964;14.502;2023-04-28T11:36:04;4.15;;;2.28;;
78889;SDS011;68279;48.964;14.502;2023-04-28T11:38:41;3.65;;;2.00;;
78889;SDS011;68279;48.964;14.502;2023-04-28T11:41:07;3.17;;;2.00;;
78889;SDS011;68279;48.964;14.502;2023-04-28T11:43:33;3.50;;;2.25;;
78889;SDS011;68279;48.964;14.502;2023-04-28T11:45:58;4.68;;;3.03;;
78889;SDS011;68279;48.964;14.502;2023-04-28T11:48:24;5.55;;;2.88;;
78889;SDS011;68279;48.964;14.502;2023-04-28T11:50:50;3.72;;;2.33;;
78889;SDS011;68279;48.964;14.502;2023-04-28T11:53:16;6.20;;;2.33;;
78889;SDS011;68279;48.964;14.502;2023-04-28T11:55:42;3.30;;;2.30;;
78889;SDS011;68279;48.964;14.502;2023-04-28T11:58:17;4.72;;;2.22;;
78889;SDS011;68279;48.964;14.502;2023-04-28T12:03:32;3.20;;;1.80;;
78889;SDS011;68279;48.964;14.502;2023-04-28T12:05:57;4.82;;;2.10;;
78889;SDS011;68279;48.964;14.502;2023-04-28T12:08:29;5.18;;;2.40;;
78889;SDS011;68279;48.964;14.502;2023-04-28T12:14:01;4.93;;;2.58;;
78889;SDS011;68279;48.964;14.502;2023-04-28T12:16:38;4.25;;;2.75;;
78889;SDS011;68279;48.964;14.502;2023-04-28T12:19:08;3.72;;;2.50;;
78889;SDS011;68279;48.964;14.502;2023-04-28T12:21:35;3.60;;;2.45;;
78889;SDS011;68279;48.964;14.502;2023-04-28T12:24:20;6.55;;;3.40;;
78889;SDS011;68279;48.964;14.502;2023-04-28T12:26:47;4.82;;;2.70;;
78889;SDS011;68279;48.964;14.502;2023-04-28T12:32:07;4.90;;;2.85;;
78889;SDS011;68279;48.964;14.502;2023-04-28T12:34:33;6.28;;;3.33;;
78889;SDS011;68279;48.964;14.502;2023-04-28T12:37:00;7.00;;;3.25;;
78889;SDS011;68279;48.964;14.502;2023-04-28T12:39:27;5.40;;;3.70;;
78889;SDS011;68279;48.964;14.502;2023-04-28T12:41:52;5.47;;;3.20;;
78889;SDS011;68279;48.964;14.502;2023-04-28T12:44:19;5.85;;;3.33;;
78889;SDS011;68279;48.964;14.502;2023-04-28T12:46:46;6.10;;;3.58;;
78889;SDS011;68279;48.964;14.502;2023-04-28T12:49:13;5.53;;;3.28;;
78889;SDS011;68279;48.964;14.502;2023-04-28T12:51:39;4.88;;;3.22;;
78889;SDS011;68279;48.964;14.502;2023-04-28T12:54:06;3.95;;;2.45;;
78889;SDS011;68279;48.964;14.502;2023-04-28T12:56:31;5.40;;;2.97;;
78889;SDS011;68279;48.964;14.502;2023-04-28T12:58:58;5.18;;;2.92;;
78889;SDS011;68279;48.964;14.502;2023-04-28T13:01:27;6.32;;;3.67;;
78889;SDS011;68279;48.964;14.502;2023-04-28T13:03:52;4.10;;;2.63;;
78889;SDS011;68279;48.964;14.502;2023-04-28T13:06:18;5.10;;;2.95;;
78889;SDS011;68279;48.964;14.502;2023-04-28T13:08:44;5.70;;;3.95;;
78889;SDS011;68279;48.964;14.502;2023-04-28T13:11:10;8.80;;;5.68;;
78889;SDS011;68279;48.964;14.502;2023-04-28T13:13:35;10.45;;;5.90;;
78889;SDS011;68279;48.964;14.502;2023-04-28T13:16:01;6.57;;;3.85;;
78889;SDS011;68279;48.964;14.502;2023-04-28T13:18:29;4.68;;;2.80;;
78889;SDS011;68279;48.964;14.502;2023-04-28T13:20:55;7.13;;;3.30;;
78889;SDS011;68279;48.964;14.502;2023-04-28T13:23:21;5.15;;;3.20;;
78889;SDS011;68279;48.964;14.502;2023-04-28T13:25:50;6.13;;;4.43;;
78889;SDS011;68279;48.964;14.502;2023-04-28T13:28:15;5.90;;;3.53;;
78889;SDS011;68279;48.964;14.502;2023-04-28T13:30:41;4.65;;;3.20;;
78889;SDS011;68279;48.964;14.502;2023-04-28T13:33:06;6.40;;;3.58;;
78889;SDS011;68279;48.964;14.502;2023-04-28T13:35:32;5.30;;;2.78;;
78889;SDS011;68279;48.964;14.502;2023-04-28T13:37:58;6.28;;;3.22;;
78889;SDS011;68279;48.964;14.502;2023-04-28T13:40:28;6.70;;;3.80;;
78889;SDS011;68279;48.964;14.502;2023-04-28T13:42:55;8.77;;;4.60;;
78889;SDS011;68279;48.964;14.502;2023-04-28T13:45:21;6.97;;;4.68;;
78889;SDS011;68279;48.964;14.502;2023-04-28T13:47:47;7.25;;;4.50;;
78889;SDS011;68279;48.964;14.502;2023-04-28T13:50:13;9.55;;;4.95;;
78889;SDS011;68279;48.964;14.502;2023-04-28T13:52:39;9.73;;;5.40;;
78889;SDS011;68279;48.964;14.502;2023-04-28T13:55:05;8.80;;;5.15;;
78889;SDS011;68279;48.964;14.502;2023-04-28T13:57:31;8.00;;;4.60;;
78889;SDS011;68279;48.964;14.502;2023-04-28T13:59:56;7.68;;;5.57;;
78889;SDS011;68279;48.964;14.502;2023-04-28T14:02:24;7.10;;;5.30;;
78889;SDS011;68279;48.964;14.502;2023-04-28T14:04:51;6.72;;;4.50;;
78889;SDS011;68279;48.964;14.502;2023-04-28T14:07:19;7.28;;;4.90;;
78889;SDS011;68279;48.964;14.502;2023-04-28T14:09:48;7.45;;;4.50;;
78889;SDS011;68279;48.964;14.502;2023-04-28T14:12:16;8.52;;;4.72;;
78889;SDS011;68279;48.964;14.502;2023-04-28T14:14:41;6.50;;;4.90;;
78889;SDS011;68279;48.964;14.502;2023-04-28T14:17:07;8.70;;;4.55;;
78889;SDS011;68279;48.964;14.502;2023-04-28T14:19:33;9.80;;;4.35;;
78889;SDS011;68279;48.964;14.502;2023-04-28T14:21:59;7.75;;;4.65;;
78889;SDS011;68279;48.964;14.502;2023-04-28T14:24:25;8.52;;;5.40;;
78889;SDS011;68279;48.964;14.502;2023-04-28T14:26:51;8.52;;;5.30;;
78889;SDS011;68279;48.964;14.502;2023-04-28T14:29:16;7.25;;;5.07;;
78889;SDS011;68279;48.964;14.502;2023-04-28T14:31:42;7.10;;;5.30;;
78889;SDS011;68279;48.964;14.502;2023-04-28T14:34:08;7.95;;;5.20;;
78889;SDS011;68279;48.964;14.502;2023-04-28T14:36:35;8.38;;;4.80;;
78889;SDS011;68279;48.964;14.502;2023-04-28T14:39:08;10.60;;;4.93;;
78889;SDS011;68279;48.964;14.502;2023-04-28T14:41:34;8.95;;;5.70;;
78889;SDS011;68279;48.964;14.502;2023-04-28T14:43:59;7.95;;;5.28;;
78889;SDS011;68279;48.964;14.502;2023-04-28T14:46:25;8.13;;;5.63;;
78889;SDS011;68279;48.964;14.502;2023-04-28T14:48:52;6.88;;;4.88;;
78889;SDS011;68279;48.964;14.502;2023-04-28T14:51:18;8.45;;;5.82;;
78889;SDS011;68279;48.964;14.502;2023-04-28T14:53:44;10.32;;;5.45;;
78889;SDS011;68279;48.964;14.502;2023-04-28T14:56:09;9.38;;;5.82;;
78889;SDS011;68279;48.964;14.502;2023-04-28T14:58:35;7.88;;;5.05;;
78889;SDS011;68279;48.964;14.502;2023-04-28T20:08:46;6.60;;;4.50;;
78889;SDS011;68279;48.964;14.502;2023-04-28T20:11:11;5.90;;;4.18;;
78889;SDS011;68279;48.964;14.502;2023-04-28T20:13:37;9.23;;;5.25;;
78889;SDS011;68279;48.964;14.502;2023-04-28T20:18:31;8.43;;;4.75;;
78889;SDS011;68279;48.964;14.502;2023-04-28T20:20:59;8.70;;;4.88;;
78889;SDS011;68279;48.964;14.502;2023-04-28T20:23:25;9.40;;;4.10;;
78889;SDS011;68279;48.964;14.502;2023-04-28T20:25:51;9.55;;;5.03;;
78889;SDS011;68279;48.964;14.502;2023-04-28T20:28:16;7.43;;;4.30;;
78889;SDS011;68279;48.964;14.502;2023-04-28T20:30:42;9.68;;;4.75;;
78889;SDS011;68279;48.964;14.502;2023-04-28T20:33:08;6.72;;;3.85;;
78889;SDS011;68279;48.964;14.502;2023-04-28T20:35:33;8.80;;;5.53;;
78889;SDS011;68279;48.964;14.502;2023-04-28T20:37:59;8.05;;;4.95;;
78889;SDS011;68279;48.964;14.502;2023-04-28T20:40:25;7.15;;;4.20;;
78889;SDS011;68279;48.964;14.502;2023-04-28T20:42:51;6.50;;;3.72;;
78889;SDS011;68279;48.964;14.502;2023-04-28T20:45:17;9.40;;;4.10;;
78889;SDS011;68279;48.964;14.502;2023-04-28T20:47:42;8.07;;;4.85;;
78889;SDS011;68279;48.964;14.502;2023-04-28T20:50:08;6.07;;;3.60;;
78889;SDS011;68279;48.964;14.502;2023-04-28T20:52:35;9.48;;;4.32;;
78889;SDS011;68279;48.964;14.502;2023-04-28T20:55:02;6.15;;;3.83;;
78889;SDS011;68279;48.964;14.502;2023-04-28T20:57:28;8.80;;;4.38;;
78889;SDS011;68279;48.964;14.502;2023-04-28T20:59:54;8.73;;;4.00;;
78889;SDS011;68279;48.964;14.502;2023-04-28T21:02:20;8.32;;;4.30;;
78889;SDS011;68279;48.964;14.502;2023-04-28T21:04:53;9.00;;;5.00;;
78889;SDS011;68279;48.964;14.502;2023-04-28T21:07:19;8.35;;;5.00;;
78889;SDS011;68279;48.964;14.502;2023-04-28T21:09:45;7.20;;;4.00;;
78889;SDS011;68279;48.964;14.502;2023-04-28T21:12:11;8.38;;;4.45;;
78889;SDS011;68279;48.964;14.502;2023-04-28T21:14:37;8.52;;;4.03;;
78889;SDS011;68279;48.964;14.502;2023-04-28T21:17:02;7.22;;;4.40;;
78889;SDS011;68279;48.964;14.502;2023-04-28T21:19:28;7.68;;;4.60;;
78889;SDS011;68279;48.964;14.502;2023-04-28T21:21:54;7.75;;;5.22;;
78889;SDS011;68279;48.964;14.502;2023-04-28T21:24:20;8.50;;;5.13;;
78889;SDS011;68279;48.964;14.502;2023-04-28T21:26:46;8.32;;;4.50;;
78889;SDS011;68279;48.964;14.502;2023-04-28T21:29:11;8.95;;;4.15;;
78889;SDS011;68279;48.964;14.502;2023-04-28T21:31:37;10.38;;;5.30;;
78889;SDS011;68279;48.964;14.502;2023-04-28T21:34:03;8.20;;;4.82;;
78889;SDS011;68279;48.964;14.502;2023-04-28T21:36:30;7.43;;;4.70;;
78889;SDS011;68279;48.964;14.502;2023-04-28T21:38:55;10.73;;;4.70;;
78889;SDS011;68279;48.964;14.502;2023-04-28T21:41:21;9.18;;;4.55;;
78889;SDS011;68279;48.964;14.502;2023-04-28T21:43:47;7.53;;;4.50;;
78889;SDS011;68279;48.964;14.502;2023-04-28T21:46:13;7.65;;;4.15;;
78889;SDS011;68279;48.964;14.502;2023-04-28T21:48:39;8.10;;;4.28;;
78889;SDS011;68279;48.964;14.502;2023-04-28T21:51:04;6.47;;;4.22;;
78889;SDS011;68279;48.964;14.502;2023-04-28T21:53:30;7.32;;;3.75;;
78889;SDS011;68279;48.964;14.502;2023-04-28T21:55:56;8.57;;;4.68;;
78889;SDS011;68279;48.964;14.502;2023-04-28T21:58:23;8.27;;;4.38;;
78889;SDS011;68279;48.964;14.502;2023-04-28T22:00:49;8.05;;;3.63;;
78889;SDS011;68279;48.964;14.502;2023-04-28T22:03:15;8.65;;;3.90;;
78889;SDS011;68279;48.964;14.502;2023-04-28T22:05:42;7.25;;;3.60;;
78889;SDS011;68279;48.964;14.502;2023-04-28T22:08:09;8.52;;;4.68;;
78889;SDS011;68279;48.964;14.502;2023-04-28T22:10:35;8.48;;;4.43;;
78889;SDS011;68279;48.964;14.502;2023-04-28T22:13:06;7.05;;;3.72;;
78889;SDS011;68279;48.964;14.502;2023-04-28T22:17:57;9.82;;;4.15;;
78889;SDS011;68279;48.964;14.502;2023-04-28T22:20:23;10.43;;;4.85;;
78889;SDS011;68279;48.964;14.502;2023-04-28T22:22:48;7.53;;;4.05;;
78889;SDS011;68279;48.964;14.502;2023-04-28T22:25:15;6.60;;;3.83;;
78889;SDS011;68279;48.964;14.502;2023-04-28T22:27:41;8.10;;;3.72;;
78889;SDS011;68279;48.964;14.502;2023-04-28T22:30:07;7.05;;;4.28;;
78889;SDS011;68279;48.964;14.502;2023-04-28T22:32:33;7.72;;;3.92;;
78889;SDS011;68279;48.964;14.502;2023-04-28T22:34:59;6.43;;;3.53;;
78889;SDS011;68279;48.964;14.502;2023-04-28T22:37:26;8.13;;;5.28;;
78889;SDS011;68279;48.964;14.502;2023-04-28T22:39:52;7.05;;;3.92;;
78889;SDS011;68279;48.964;14.502;2023-04-28T22:42:18;6.57;;;4.15;;
78889;SDS011;68279;48.964;14.502;2023-04-28T22:44:44;7.35;;;3.60;;
78889;SDS011;68279;48.964;14.502;2023-04-28T22:47:10;7.18;;;4.00;;
78889;SDS011;68279;48.964;14.502;2023-04-28T22:49:35;6.97;;;3.90;;
78889;SDS011;68279;48.964;14.502;2023-04-28T22:52:01;6.65;;;3.78;;
78889;SDS011;68279;48.964;14.502;2023-04-28T22:54:28;8.57;;;3.60;;
78889;SDS011;68279;48.964;14.502;2023-04-28T22:56:53;6.35;;;3.80;;
78889;SDS011;68279;48.964;14.502;2023-04-28T22:59:21;6.78;;;3.95;;
78889;SDS011;68279;48.964;14.502;2023-04-28T23:01:46;5.97;;;3.90;;
78889;SDS011;68279;48.964;14.502;2023-04-28T23:04:13;6.38;;;3.97;;
78889;SDS011;68279;48.964;14.502;2023-04-28T23:06:38;5.05;;;3.50;;
78889;SDS011;68279;48.964;14.502;2023-04-28T23:09:04;6.43;;;3.53;;
78889;SDS011;68279;48.964;14.502;2023-04-28T23:11:29;6.88;;;3.25;;
78889;SDS011;68279;48.964;14.502;2023-04-28T23:13:55;6.75;;;3.03;;
78889;SDS011;68279;48.964;14.502;2023-04-28T23:16:21;6.43;;;3.30;;
78889;SDS011;68279;48.964;14.502;2023-04-28T23:18:46;4.97;;;3.08;;
78889;SDS011;68279;48.964;14.502;2023-04-28T23:21:18;6.03;;;2.70;;
78889;SDS011;68279;48.964;14.502;2023-04-28T23:23:44;4.40;;;3.03;;
78889;SDS011;68279;48.964;14.502;2023-04-28T23:26:09;5.25;;;2.88;;
78889;SDS011;68279;48.964;14.502;2023-04-28T23:28:35;4.72;;;2.88;;
78889;SDS011;68279;48.964;14.502;2023-04-28T23:31:00;6.30;;;2.83;;
78889;SDS011;68279;48.964;14.502;2023-04-28T23:33:26;4.32;;;2.40;;
78889;SDS011;68279;48.964;14.502;2023-04-28T23:35:54;5.32;;;2.72;;
78889;SDS011;68279;48.964;14.502;2023-04-28T23:38:20;5.05;;;2.75;;
78889;SDS011;68279;48.964;14.502;2023-04-28T23:40:45;4.95;;;3.13;;
78889;SDS011;68279;48.964;14.502;2023-04-28T23:43:11;6.03;;;3.05;;
78889;SDS011;68279;48.964;14.502;2023-04-28T23:45:39;4.72;;;2.78;;
78889;SDS011;68279;48.964;14.502;2023-04-28T23:48:05;5.95;;;3.20;;
78889;SDS011;68279;48.964;14.502;2023-04-28T23:50:31;6.07;;;3.20;;
78889;SDS011;68279;48.964;14.502;2023-04-28T23:52:56;5.47;;;3.08;;
78889;SDS011;68279;48.964;14.502;2023-04-28T23:55:22;4.65;;;2.58;;
78889;SDS011;68279;48.964;14.502;2023-04-28T23:57:47;6.82;;;3.10;;
